Time;durP1;ratioP1;P1;durP2;ratioP2;P2;SDS_P1;SDS_P2;PMS_P1;PMS_P2;Temp;Humidity;BMP_temperature;BMP_pressure;BME280_temperature;BME280_humidity;BME280_pressure;Samples;Min_cycle;Max_cycle;Signal;HPM_P1;HPM_P2
2022/08/28 00:00:38;;;;;;;18.77;14.97;;;23.20;1.00;;;;;;4935722;29;20502;-82
2022/08/28 00:03:09;;;;;;;16.03;14.40;;;23.20;1.00;;;;;;4935237;29;20465;-81
2022/08/28 00:05:38;;;;;;;16.33;14.10;;;23.10;1.00;;;;;;4938814;29;20520;-83
2022/08/28 00:08:07;;;;;;;17.70;14.77;;;23.20;1.00;;;;;;4937918;29;20530;-83
2022/08/28 00:10:38;;;;;;;16.77;14.97;;;23.20;1.00;;;;;;4954843;28;20462;-81
2022/08/28 00:13:08;;;;;;;14.23;12.80;;;23.10;1.00;;;;;;4953858;29;21014;-80
2022/08/28 00:15:37;;;;;;;15.80;14.10;;;23.10;1.00;;;;;;4953752;28;20528;-82
2022/08/28 00:18:08;;;;;;;17.63;13.23;;;23.10;1.00;;;;;;4954287;28;20450;-83
2022/08/28 00:20:37;;;;;;;15.40;13.80;;;23.10;1.00;;;;;;4954899;29;20468;-83
2022/08/28 00:23:06;;;;;;;16.50;14.70;;;23.10;1.00;;;;;;4953380;29;20462;-82
2022/08/28 00:25:35;;;;;;;16.60;14.90;;;23.10;1.00;;;;;;4953827;28;20493;-82
2022/08/28 00:28:06;;;;;;;17.27;14.67;;;23.10;1.00;;;;;;4953674;28;20482;-82
2022/08/28 00:30:39;;;;;;;18.10;14.90;;;23.20;1.00;;;;;;4954533;29;21020;-82
2022/08/28 00:33:11;;;;;;;17.17;14.47;;;23.20;1.00;;;;;;4953918;28;20487;-82
2022/08/28 00:35:41;;;;;;;16.00;14.30;;;23.10;1.00;;;;;;4952353;28;20505;-82
2022/08/28 00:38:11;;;;;;;14.80;13.33;;;23.10;1.00;;;;;;4954103;29;20466;-82
2022/08/28 00:40:43;;;;;;;15.87;14.03;;;23.10;1.00;;;;;;4952329;29;20459;-82
2022/08/28 00:43:20;;;;;;;17.33;14.07;;;23.10;1.00;;;;;;4952601;29;20462;-82
2022/08/28 00:45:49;;;;;;;14.83;13.30;;;23.10;1.00;;;;;;4954078;28;20879;-82
2022/08/28 00:48:18;;;;;;;15.00;13.20;;;23.10;1.00;;;;;;4953696;29;20481;-82
2022/08/28 00:53:32;;;;;;;15.93;14.23;;;23.10;1.00;;;;;;4953209;29;20966;-82
2022/08/28 00:56:05;;;;;;;16.50;13.70;;;23.10;1.00;;;;;;4939616;28;20931;-82
2022/08/28 00:58:42;;;;;;;14.90;13.40;;;23.10;1.00;;;;;;4944664;29;20452;-82
2022/08/28 01:01:10;;;;;;;15.10;13.50;;;23.10;1.00;;;;;;4953637;29;20469;-82
2022/08/28 01:03:41;;;;;;;14.80;13.10;;;23.10;1.00;;;;;;4953440;28;20457;-82
2022/08/28 01:06:10;;;;;;;14.87;12.70;;;23.10;1.00;;;;;;4934417;29;20561;-82
2022/08/28 01:08:40;;;;;;;15.10;13.50;;;23.10;1.00;;;;;;4933818;29;20526;-82
2022/08/28 01:11:09;;;;;;;13.83;12.40;;;23.20;1.00;;;;;;4933665;29;20516;-81
2022/08/28 01:13:41;;;;;;;15.07;13.57;;;23.20;1.00;;;;;;4945881;29;20464;-82
2022/08/28 01:16:09;;;;;;;14.17;12.67;;;23.20;1.00;;;;;;4934168;29;20524;-82
2022/08/28 01:18:40;;;;;;;14.90;13.03;;;23.20;1.00;;;;;;4933576;29;20453;-81
2022/08/28 01:21:16;;;;;;;13.97;12.47;;;23.20;1.00;;;;;;4933766;29;20455;-81
2022/08/28 01:23:56;;;;;;;14.60;13.00;;;23.20;1.00;;;;;;4948675;29;20477;-81
2022/08/28 01:26:31;;;;;;;14.70;12.50;;;23.20;1.00;;;;;;4952456;28;20477;-81
2022/08/28 01:29:00;;;;;;;14.20;12.77;;;23.20;1.00;;;;;;4953081;29;20480;-82
2022/08/28 01:31:29;;;;;;;15.43;13.17;;;23.10;1.00;;;;;;4952199;28;20471;-82
2022/08/28 01:33:59;;;;;;;14.13;12.73;;;23.20;1.00;;;;;;4950892;28;20537;-82
2022/08/28 01:36:29;;;;;;;15.93;14.10;;;23.20;1.00;;;;;;4952736;28;20458;-82
2022/08/28 01:39:06;;;;;;;17.67;13.87;;;23.10;1.00;;;;;;4952667;28;20487;-82
2022/08/28 01:41:37;;;;;;;14.50;13.00;;;23.10;1.00;;;;;;4950632;29;20454;-82
2022/08/28 01:44:06;;;;;;;15.93;13.10;;;23.10;1.00;;;;;;4951992;28;20899;-82
2022/08/28 01:46:34;;;;;;;12.57;11.27;;;23.20;1.00;;;;;;4952492;29;20517;-81
2022/08/28 01:49:03;;;;;;;14.87;13.33;;;23.10;1.00;;;;;;4936636;28;20476;-82
2022/08/28 01:51:31;;;;;;;13.70;11.90;;;23.10;1.00;;;;;;4933330;29;20840;-81
2022/08/28 01:54:07;;;;;;;14.03;12.50;;;23.10;1.00;;;;;;4951604;28;20464;-82
2022/08/28 01:56:37;;;;;;;13.83;12.43;;;23.20;1.00;;;;;;4951863;29;20875;-81
2022/08/28 01:59:08;;;;;;;14.70;13.27;;;23.20;1.00;;;;;;4952335;28;20465;-82
2022/08/28 02:01:36;;;;;;;16.23;14.07;;;23.20;1.00;;;;;;4952157;28;20460;-82
2022/08/28 02:04:05;;;;;;;16.30;13.97;;;23.20;1.00;;;;;;4951383;28;20451;-81
2022/08/28 02:06:35;;;;;;;15.90;12.80;;;23.10;1.00;;;;;;4939116;29;20463;-81
2022/08/28 02:09:03;;;;;;;14.90;12.80;;;23.20;1.00;;;;;;4954103;28;20491;-82
2022/08/28 02:11:33;;;;;;;16.27;14.60;;;23.10;1.00;;;;;;4955042;28;21027;-82
2022/08/28 02:14:02;;;;;;;14.53;13.03;;;23.10;1.00;;;;;;4950553;28;20470;-82
2022/08/28 02:16:30;;;;;;;14.50;13.00;;;23.10;1.00;;;;;;4966502;28;20446;-82
2022/08/28 02:19:00;;;;;;;16.60;13.37;;;23.20;1.00;;;;;;4952008;28;21015;-82
2022/08/28 02:21:28;;;;;;;14.03;12.53;;;23.20;1.00;;;;;;4948243;29;20462;-82
2022/08/28 02:23:56;;;;;;;16.67;13.57;;;23.20;1.00;;;;;;4932326;29;20539;-82
2022/08/28 02:26:24;;;;;;;14.87;13.37;;;23.20;1.00;;;;;;4948272;28;21008;-82
2022/08/28 02:28:54;;;;;;;12.90;11.60;;;23.20;1.00;;;;;;4951730;29;20975;-82
2022/08/28 02:31:22;;;;;;;14.70;12.77;;;23.10;1.00;;;;;;4951766;28;20965;-82
2022/08/28 02:33:51;;;;;;;14.70;13.10;;;23.20;1.00;;;;;;4950475;29;20467;-82
2022/08/28 02:36:21;;;;;;;14.07;12.63;;;23.10;1.00;;;;;;4951799;29;20918;-81
2022/08/28 02:38:49;;;;;;;13.60;12.20;;;23.10;1.00;;;;;;4949865;28;20465;-81
2022/08/28 02:41:24;;;;;;;13.73;12.00;;;23.10;1.00;;;;;;4950220;29;20984;-82
2022/08/28 02:43:54;;;;;;;17.13;13.00;;;23.20;1.00;;;;;;4954798;29;20458;-82
2022/08/28 02:46:22;;;;;;;13.00;11.70;;;23.10;1.00;;;;;;4955732;28;20458;-82
2022/08/28 02:48:50;;;;;;;14.77;12.57;;;23.10;1.00;;;;;;4955839;29;20458;-81
2022/08/28 02:51:18;;;;;;;14.00;12.60;;;23.10;1.00;;;;;;4955896;29;20989;-82
2022/08/28 02:53:47;;;;;;;14.17;11.70;;;23.10;1.00;;;;;;4955517;28;20465;-81
2022/08/28 02:56:15;;;;;;;13.70;12.10;;;23.10;1.00;;;;;;4955102;28;20482;-82
2022/08/28 02:58:43;;;;;;;14.27;12.00;;;23.10;1.00;;;;;;4955858;29;20580;-82
2022/08/28 03:01:13;;;;;;;13.20;11.40;;;23.10;1.00;;;;;;4955795;28;20469;-82
2022/08/28 03:03:42;;;;;;;13.30;11.90;;;23.10;1.00;;;;;;4942492;29;20463;-82
2022/08/28 03:06:12;;;;;;;12.30;11.00;;;23.10;1.00;;;;;;4955350;28;20477;-82
2022/08/28 03:08:41;;;;;;;13.43;11.90;;;23.10;1.00;;;;;;4955424;29;20458;-82
2022/08/28 03:11:10;;;;;;;12.23;10.90;;;23.10;1.00;;;;;;4955418;28;20509;-81
2022/08/28 03:13:38;;;;;;;14.17;11.93;;;23.10;1.00;;;;;;4946090;28;20470;-82
2022/08/28 03:16:07;;;;;;;13.70;11.27;;;23.10;1.00;;;;;;4955906;28;20489;-82
2022/08/28 03:18:37;;;;;;;13.60;11.47;;;23.10;1.00;;;;;;4955987;29;20758;-82
2022/08/28 03:21:05;;;;;;;13.50;12.10;;;23.10;1.00;;;;;;4955281;28;20973;-82
2022/08/28 03:23:34;;;;;;;13.20;11.23;;;23.10;1.00;;;;;;4959731;28;20816;-82
2022/08/28 03:26:04;;;;;;;12.43;11.13;;;23.10;1.00;;;;;;4953111;28;20493;-81
2022/08/28 03:28:35;;;;;;;15.50;11.37;;;23.10;1.00;;;;;;4936179;29;20472;-81
2022/08/28 03:31:04;;;;;;;12.13;10.80;;;23.10;1.00;;;;;;4936736;29;20549;-82
2022/08/28 03:33:33;;;;;;;14.73;12.33;;;23.10;1.00;;;;;;4936077;29;20947;-81
2022/08/28 03:36:03;;;;;;;16.47;13.13;;;23.10;1.00;;;;;;4934720;29;20514;-83
2022/08/28 03:38:32;;;;;;;15.17;11.27;;;23.10;1.00;;;;;;4946146;29;20450;-83
2022/08/28 03:41:01;;;;;;;15.30;12.50;;;23.10;1.00;;;;;;4949059;29;20951;-82
2022/08/28 03:43:30;;;;;;;14.87;10.57;;;23.20;1.00;;;;;;4954373;29;20453;-82
2022/08/28 03:46:01;;;;;;;15.07;11.70;;;23.10;1.00;;;;;;4955443;28;20483;-83
2022/08/28 03:48:31;;;;;;;15.13;11.80;;;23.10;1.00;;;;;;4946007;29;20511;-81
2022/08/28 03:51:01;;;;;;;12.90;10.17;;;23.10;1.00;;;;;;4954240;28;20516;-82
2022/08/28 03:53:30;;;;;;;14.90;11.67;;;23.10;1.00;;;;;;4955066;29;20960;-82
2022/08/28 03:55:59;;;;;;;13.80;11.43;;;23.10;1.00;;;;;;4955143;28;20488;-82
2022/08/28 03:58:28;;;;;;;14.23;11.30;;;23.10;1.00;;;;;;4954506;29;20453;-82
2022/08/28 04:00:56;;;;;;;14.10;11.00;;;23.10;1.00;;;;;;4953166;29;20456;-82
2022/08/28 04:03:25;;;;;;;16.87;11.10;;;23.10;1.00;;;;;;4950498;29;20468;-82
2022/08/28 04:05:53;;;;;;;16.37;12.10;;;23.00;1.00;;;;;;4934610;29;20485;-82
2022/08/28 04:08:22;;;;;;;14.23;10.73;;;23.10;1.00;;;;;;4934311;29;20992;-82
2022/08/28 04:10:53;;;;;;;17.13;12.30;;;23.10;1.00;;;;;;4933774;29;20884;-82
2022/08/28 04:13:22;;;;;;;12.60;11.40;;;23.10;1.00;;;;;;4932748;29;20462;-82
2022/08/28 04:16:00;;;;;;;14.77;11.17;;;23.10;1.00;;;;;;4934140;29;20490;-82
2022/08/28 04:18:31;;;;;;;12.30;9.93;;;23.10;1.00;;;;;;4934851;29;20462;-82
2022/08/28 04:21:02;;;;;;;15.03;12.00;;;23.10;1.00;;;;;;4942960;29;20460;-82
2022/08/28 04:23:30;;;;;;;14.30;11.20;;;23.10;1.00;;;;;;4953697;29;20440;-82
2022/08/28 04:25:59;;;;;;;15.20;11.37;;;23.10;1.00;;;;;;4953677;28;20496;-83
2022/08/28 04:28:28;;;;;;;13.70;11.40;;;23.10;1.00;;;;;;4953884;29;20469;-82
2022/08/28 04:30:56;;;;;;;14.93;10.93;;;23.10;1.00;;;;;;4954164;28;20480;-81
2022/08/28 04:33:25;;;;;;;16.37;11.33;;;23.10;1.00;;;;;;4953287;29;20444;-82
2022/08/28 04:35:54;;;;;;;12.27;10.97;;;23.00;1.00;;;;;;4954296;28;20480;-82
2022/08/28 04:38:23;;;;;;;14.37;11.37;;;23.10;1.00;;;;;;4946648;28;20484;-82
2022/08/28 04:40:51;;;;;;;14.37;11.47;;;23.10;1.00;;;;;;4947469;29;20445;-82
2022/08/28 04:43:21;;;;;;;12.80;10.73;;;23.10;1.00;;;;;;4943073;29;20472;-82
2022/08/28 04:45:49;;;;;;;14.80;11.73;;;23.00;1.00;;;;;;4953298;28;20477;-81
2022/08/28 04:48:17;;;;;;;14.20;11.40;;;23.00;1.00;;;;;;4953520;29;20986;-82
2022/08/28 04:50:48;;;;;;;15.20;10.73;;;23.00;1.00;;;;;;4954121;29;20536;-83
2022/08/28 04:53:18;;;;;;;14.00;11.33;;;23.10;2.40;;;;;;4953411;29;20823;-82
2022/08/28 04:55:49;;;;;;;15.27;12.20;;;23.10;1.00;;;;;;4941244;28;20484;-82
2022/08/28 04:58:23;;;;;;;16.97;12.73;;;23.10;1.00;;;;;;4953525;28;20884;-82
2022/08/28 05:00:53;;;;;;;15.90;12.57;;;23.10;1.00;;;;;;4950595;29;20449;-82
2022/08/28 05:03:22;;;;;;;13.13;11.20;;;23.10;14.60;;;;;;4939248;28;20465;-82
2022/08/28 05:05:52;;;;;;;14.53;11.97;;;23.10;29.10;;;;;;4953332;28;20485;-82
2022/08/28 05:08:25;;;;;;;16.47;12.47;;;23.00;83.80;;;;;;4953444;28;20497;-82
2022/08/28 05:10:54;;;;;;;15.00;11.70;;;23.10;99.90;;;;;;4952692;29;20576;-82
2022/08/28 05:13:25;;;;;;;16.60;13.37;;;23.10;99.90;;;;;;4946964;29;20965;-82
2022/08/28 05:15:54;;;;;;;17.67;12.90;;;23.10;99.90;;;;;;4953474;28;20493;-82
2022/08/28 05:18:24;;;;;;;15.10;13.10;;;23.10;99.90;;;;;;4953161;29;20445;-81
2022/08/28 05:20:52;;;;;;;15.50;12.67;;;23.10;99.90;;;;;;4953200;28;20451;-82
2022/08/28 05:23:20;;;;;;;18.67;13.10;;;23.10;99.90;;;;;;4952505;29;20548;-82
2022/08/28 05:25:52;;;;;;;15.47;11.83;;;23.10;99.90;;;;;;4952315;28;20511;-83
2022/08/28 05:28:23;;;;;;;19.63;13.40;;;23.10;99.90;;;;;;4949514;29;20902;-82
2022/08/28 05:30:52;;;;;;;17.27;13.30;;;23.10;99.90;;;;;;4937230;28;20473;-82
2022/08/28 05:33:21;;;;;;;15.20;11.60;;;23.10;99.90;;;;;;4954839;28;20469;-82
2022/08/28 05:35:49;;;;;;;14.00;11.50;;;23.10;99.90;;;;;;4965671;28;20481;-82
2022/08/28 05:38:17;;;;;;;17.47;12.53;;;23.10;99.90;;;;;;4952038;28;20446;-83
2022/08/28 05:40:47;;;;;;;17.30;12.63;;;23.10;99.90;;;;;;4944444;29;20892;-82
2022/08/28 05:43:17;;;;;;;15.23;11.57;;;23.10;99.90;;;;;;4952481;28;20480;-81
2022/08/28 05:45:45;;;;;;;15.00;12.00;;;23.10;99.90;;;;;;4946346;28;20477;-83
2022/08/28 05:48:15;;;;;;;16.83;12.70;;;23.20;99.90;;;;;;4949012;29;20917;-83
2022/08/28 05:50:43;;;;;;;15.40;13.00;;;23.20;99.90;;;;;;4952539;29;20495;-82
2022/08/28 05:53:16;;;;;;;15.43;12.67;;;23.20;99.90;;;;;;4952019;29;20523;-83
2022/08/28 05:55:45;;;;;;;14.03;11.20;;;23.20;99.90;;;;;;4952559;28;20492;-82
2022/08/28 05:58:32;;;;;;;11.37;10.20;;;23.10;99.90;;;;;;4952487;29;20457;-82
2022/08/28 06:01:09;;;;;;;15.47;11.07;;;23.10;99.90;;;;;;4950278;29;20922;-82
2022/08/28 06:03:39;;;;;;;16.13;11.13;;;23.20;99.90;;;;;;4940295;29;20591;-82
2022/08/28 06:06:10;;;;;;;13.20;10.57;;;23.10;99.90;;;;;;4952317;28;20485;-81
2022/08/28 06:08:39;;;;;;;14.30;11.67;;;23.20;99.90;;;;;;4952045;28;20459;-82
2022/08/28 06:11:26;;;;;;;16.20;11.17;;;23.20;99.90;;;;;;4951328;28;20484;-82
2022/08/28 06:13:59;;;;;;;12.23;10.30;;;23.20;99.90;;;;;;4951279;28;21319;-82
2022/08/28 06:16:29;;;;;;;13.83;11.17;;;23.20;99.90;;;;;;4952003;28;21052;-82
2022/08/28 06:19:00;;;;;;;18.90;12.57;;;23.20;99.90;;;;;;4952468;28;20458;-82
2022/08/28 06:21:29;;;;;;;14.10;12.33;;;23.20;99.90;;;;;;4950664;29;20946;-83
2022/08/28 06:23:57;;;;;;;16.97;11.70;;;23.20;95.30;;;;;;4951531;28;20460;-81
2022/08/28 06:26:26;;;;;;;15.87;10.70;;;23.20;99.90;;;;;;4951337;29;20517;-82
2022/08/28 06:28:54;;;;;;;22.10;11.47;;;23.20;97.40;;;;;;4952403;29;20449;-82
2022/08/28 06:31:23;;;;;;;13.37;10.73;;;23.30;99.90;;;;;;4951917;29;20476;-82
2022/08/28 06:33:56;;;;;;;15.70;10.77;;;23.30;99.90;;;;;;4951791;29;20460;-82
2022/08/28 06:36:27;;;;;;;16.17;11.70;;;23.30;68.00;;;;;;4945331;28;20450;-82
2022/08/28 06:38:57;;;;;;;16.13;11.90;;;23.30;55.20;;;;;;4951356;28;20468;-81
2022/08/28 06:41:32;;;;;;;13.70;11.37;;;23.30;66.40;;;;;;4952154;29;20933;-82
2022/08/28 06:44:00;;;;;;;16.47;11.60;;;23.30;90.20;;;;;;4951627;28;20449;-82
2022/08/28 06:46:29;;;;;;;15.67;11.43;;;23.30;45.50;;;;;;4951807;28;20477;-83
2022/08/28 06:48:57;;;;;;;13.17;10.90;;;23.30;60.50;;;;;;4951737;28;20457;-82
2022/08/28 06:51:26;;;;;;;15.27;11.60;;;23.30;69.00;;;;;;4951050;28;20885;-82
2022/08/28 06:53:56;;;;;;;13.57;12.07;;;23.30;56.90;;;;;;4949493;28;20455;-82
2022/08/28 06:56:25;;;;;;;18.90;12.40;;;23.30;48.30;;;;;;4951934;28;20550;-81
2022/08/28 06:58:57;;;;;;;16.47;12.47;;;23.30;25.10;;;;;;4951444;29;20448;-82
2022/08/28 07:01:27;;;;;;;15.10;11.20;;;23.30;27.10;;;;;;4951440;28;20872;-82
2022/08/28 07:03:59;;;;;;;17.13;11.67;;;23.30;30.60;;;;;;4950184;29;20450;-81
2022/08/28 07:06:32;;;;;;;20.03;12.57;;;23.30;44.20;;;;;;4941945;29;20855;-82
2022/08/28 07:09:01;;;;;;;16.83;12.23;;;23.30;66.00;;;;;;4951383;28;20458;-82
2022/08/28 07:11:34;;;;;;;15.27;11.70;;;23.30;69.70;;;;;;4943339;29;20475;-82
2022/08/28 07:14:03;;;;;;;16.73;12.17;;;23.30;58.40;;;;;;4951373;28;20875;-82
2022/08/28 07:16:36;;;;;;;16.17;11.97;;;23.30;79.10;;;;;;4951107;29;20461;-83
2022/08/28 07:19:05;;;;;;;15.33;11.13;;;23.30;73.10;;;;;;4938869;29;20509;-82
2022/08/28 07:21:37;;;;;;;17.90;12.27;;;23.30;77.30;;;;;;4951171;29;20819;-82
2022/08/28 07:24:07;;;;;;;12.47;10.67;;;23.40;97.60;;;;;;4951028;28;20448;-83
2022/08/28 07:26:36;;;;;;;16.63;12.60;;;23.40;95.40;;;;;;4954093;29;20838;-83
2022/08/28 07:29:06;;;;;;;16.27;11.97;;;23.40;87.10;;;;;;4945689;28;20462;-82
2022/08/28 07:31:40;;;;;;;16.27;11.50;;;23.40;70.00;;;;;;4955007;28;20489;-83
2022/08/28 07:34:10;;;;;;;16.23;10.87;;;23.40;66.70;;;;;;4954498;28;20455;-82
2022/08/28 07:36:40;;;;;;;15.73;11.20;;;23.40;67.80;;;;;;4947565;29;20965;-82
2022/08/28 07:39:10;;;;;;;16.63;12.83;;;23.40;66.80;;;;;;4955205;29;20456;-82
2022/08/28 07:41:41;;;;;;;15.30;11.30;;;23.40;99.10;;;;;;4954644;29;20467;-83
2022/08/28 07:47:01;;;;;;;15.50;11.57;;;23.40;44.20;;;;;;4944844;28;20450;-83
2022/08/28 07:49:29;;;;;;;13.80;11.23;;;23.40;32.50;;;;;;4954931;29;20450;-82
2022/08/28 07:51:58;;;;;;;15.07;11.50;;;23.40;31.90;;;;;;4954450;28;20527;-81
2022/08/28 07:54:26;;;;;;;12.10;10.03;;;23.40;13.10;;;;;;4954676;28;20476;-82
2022/08/28 07:56:54;;;;;;;13.80;10.83;;;23.40;6.10;;;;;;4954563;29;20461;-83
2022/08/28 07:59:23;;;;;;;13.90;10.47;;;23.40;1.00;;;;;;4955035;28;20472;-83
2022/08/28 08:01:51;;;;;;;12.53;11.17;;;23.40;19.10;;;;;;4942359;28;20462;-82
2022/08/28 08:04:22;;;;;;;12.80;10.40;;;23.50;66.50;;;;;;4954435;28;20523;-82
2022/08/28 08:06:52;;;;;;;12.23;9.60;;;23.50;86.90;;;;;;4954890;28;20462;-82
2022/08/28 08:09:26;;;;;;;9.53;8.47;;;23.50;47.80;;;;;;4954757;29;20484;-82
2022/08/28 08:11:56;;;;;;;10.73;8.37;;;23.50;10.30;;;;;;4942248;28;20484;-81
2022/08/28 08:14:24;;;;;;;14.10;9.83;;;23.50;4.10;;;;;;4954396;28;20493;-83
2022/08/28 08:16:53;;;;;;;10.33;8.63;;;23.60;13.10;;;;;;4954898;29;20953;-82
2022/08/28 08:19:21;;;;;;;12.33;9.30;;;23.60;36.50;;;;;;4944864;29;20461;-83
2022/08/28 08:21:51;;;;;;;12.63;10.20;;;23.60;99.90;;;;;;4954113;28;20467;-82
2022/08/28 08:24:24;;;;;;;9.83;8.33;;;23.60;50.20;;;;;;4954359;28;20493;-82
2022/08/28 08:26:58;;;;;;;12.53;9.60;;;23.60;45.00;;;;;;4954249;28;20468;-82
2022/08/28 08:29:31;;;;;;;10.60;8.30;;;23.60;44.90;;;;;;4954164;29;20452;-82
2022/08/28 08:32:03;;;;;;;9.33;8.40;;;23.60;9.00;;;;;;4953979;28;20498;-82
2022/08/28 08:34:35;;;;;;;9.07;7.70;;;23.60;12.00;;;;;;4950651;28;20480;-82
2022/08/28 08:37:04;;;;;;;9.27;8.27;;;23.70;1.00;;;;;;4951574;28;20460;-83
2022/08/28 08:39:32;;;;;;;12.50;8.73;;;23.70;1.00;;;;;;4954400;29;20511;-82
2022/08/28 08:42:05;;;;;;;8.30;7.40;;;23.70;1.00;;;;;;4954207;28;20467;-83
2022/08/28 08:44:36;;;;;;;9.83;7.97;;;23.70;1.00;;;;;;4953786;28;20477;-82
2022/08/28 08:47:14;;;;;;;9.07;8.00;;;23.70;1.00;;;;;;4954306;29;20965;-83
2022/08/28 08:49:50;;;;;;;7.77;7.03;;;23.70;1.00;;;;;;4954304;28;20461;-82
2022/08/28 08:52:31;;;;;;;8.30;7.53;;;23.80;1.00;;;;;;4954028;28;20454;-82
2022/08/28 08:55:07;;;;;;;8.50;6.90;;;23.80;1.00;;;;;;4938790;29;20484;-82
2022/08/28 08:57:38;;;;;;;10.80;8.93;;;23.80;1.00;;;;;;4943250;29;20720;-83
2022/08/28 09:00:10;;;;;;;8.90;7.80;;;23.80;1.00;;;;;;4943154;28;20468;-82
2022/08/28 09:02:48;;;;;;;9.37;8.37;;;23.80;1.00;;;;;;4935123;29;20456;-82
2022/08/28 09:05:21;;;;;;;8.93;7.67;;;23.90;1.00;;;;;;4934271;29;20481;-82
2022/08/28 09:07:56;;;;;;;8.90;7.50;;;23.80;1.00;;;;;;4934783;29;20541;-83
2022/08/28 09:10:31;;;;;;;9.90;7.33;;;23.90;1.00;;;;;;4947910;29;20454;-82
2022/08/28 09:13:06;;;;;;;9.43;7.40;;;23.90;1.00;;;;;;4942346;28;20479;-82
2022/08/28 09:15:38;;;;;;;12.03;8.43;;;24.00;1.00;;;;;;4953260;28;20915;-82
2022/08/28 09:18:12;;;;;;;9.00;7.00;;;24.00;1.00;;;;;;4952916;29;20473;-83
2022/08/28 09:20:41;;;;;;;8.80;7.77;;;24.00;1.00;;;;;;4953733;28;20460;-82
2022/08/28 09:23:11;;;;;;;7.83;7.03;;;24.00;1.00;;;;;;4953100;29;20459;-82
2022/08/28 09:25:53;;;;;;;7.63;6.83;;;24.00;1.00;;;;;;4953222;28;20493;-83
2022/08/28 09:28:26;;;;;;;9.50;8.20;;;24.00;1.00;;;;;;4934518;29;20459;-82
2022/08/28 09:31:03;;;;;;;12.77;8.70;;;24.10;1.00;;;;;;4934519;29;20463;-83
2022/08/28 09:33:39;;;;;;;10.27;9.20;;;24.20;1.00;;;;;;4945565;29;20475;-83
2022/08/28 09:36:30;;;;;;;8.60;7.77;;;24.20;1.00;;;;;;4953085;28;20526;-83
2022/08/28 09:39:10;;;;;;;7.80;7.00;;;24.30;1.00;;;;;;4943964;29;20469;-82
2022/08/28 09:44:33;;;;;;;8.60;6.27;;;24.50;1.00;;;;;;4949807;28;20502;-82
2022/08/28 09:47:01;;;;;;;7.20;5.97;;;24.50;1.00;;;;;;4934105;29;21120;-82
2022/08/28 09:49:30;;;;;;;6.03;5.33;;;24.60;1.00;;;;;;4949589;29;20527;-83
2022/08/28 09:52:16;;;;;;;5.87;5.47;;;24.70;1.00;;;;;;4953346;28;20460;-82
2022/08/28 09:54:50;;;;;;;6.20;5.70;;;24.70;1.00;;;;;;4933877;29;20829;-83
2022/08/28 09:57:18;;;;;;;7.17;6.47;;;24.70;99.90;;;;;;4947839;29;20966;-83
2022/08/28 09:59:48;;;;;;;8.67;7.10;;;24.80;1.00;;;;;;4953113;29;20452;-82
2022/08/28 10:02:27;;;;;;;5.93;5.33;;;24.90;1.00;;;;;;4937829;28;20456;-82
2022/08/28 10:05:02;;;;;;;7.90;6.00;;;25.00;99.90;;;;;;4952858;28;20519;-82
2022/08/28 10:07:39;;;;;;;5.53;5.03;;;25.00;99.90;;;;;;4952804;29;20456;-82
2022/08/28 10:10:18;;;;;;;7.63;6.17;;;25.00;99.90;;;;;;4952931;29;20466;-83
2022/08/28 10:12:59;;;;;;;5.30;4.87;;;25.10;99.90;;;;;;4952314;29;20451;-83
2022/08/28 10:15:36;;;;;;;7.50;5.30;;;25.10;99.90;;;;;;4952594;28;20475;-83
2022/08/28 10:18:24;;;;;;;5.83;5.20;;;25.10;99.90;;;;;;4943087;29;20469;-82
2022/08/28 10:21:01;;;;;;;6.80;5.93;;;25.10;99.90;;;;;;4933646;29;20532;-81
2022/08/28 10:23:41;;;;;;;7.70;6.30;;;25.20;99.90;;;;;;4948955;29;20534;-83
2022/08/28 10:26:23;;;;;;;5.97;5.27;;;25.20;99.90;;;;;;4952536;28;20568;-83
2022/08/28 10:29:02;;;;;;;4.97;4.60;;;25.20;99.90;;;;;;4933516;29;20871;-82
2022/08/28 10:31:40;;;;;;;6.70;6.10;;;25.20;99.90;;;;;;4936256;29;20490;-80
2022/08/28 10:34:32;;;;;;;5.73;5.20;;;25.30;99.90;;;;;;4945256;29;20835;-80
2022/08/28 10:37:09;;;;;;;6.17;5.57;;;25.30;99.90;;;;;;4950552;28;20484;-81
2022/08/28 10:39:47;;;;;;;5.93;5.43;;;25.30;99.90;;;;;;4952078;28;20764;-80
2022/08/28 10:42:24;;;;;;;5.47;5.00;;;25.30;99.90;;;;;;4952087;28;20480;-81
2022/08/28 10:45:08;;;;;;;8.20;5.10;;;25.40;99.90;;;;;;4952072;28;20472;-80
2022/08/28 10:47:42;;;;;;;5.33;4.83;;;25.40;99.90;;;;;;4952293;28;20979;-81
2022/08/28 10:50:15;;;;;;;5.53;5.13;;;25.50;99.90;;;;;;4952003;29;20448;-79
2022/08/28 10:52:49;;;;;;;6.43;4.57;;;25.50;99.90;;;;;;4940493;29;20519;-81
2022/08/28 10:55:23;;;;;;;6.20;5.23;;;25.60;99.90;;;;;;4951367;28;20490;-80
2022/08/28 10:57:57;;;;;;;5.37;4.87;;;25.70;99.90;;;;;;4952199;29;20432;-81
2022/08/28 11:00:27;;;;;;;5.83;5.33;;;25.70;99.90;;;;;;4934153;29;20472;-80
2022/08/28 11:02:59;;;;;;;5.80;5.20;;;25.80;99.90;;;;;;4936388;29;21011;-79
2022/08/28 11:05:31;;;;;;;5.80;5.30;;;26.00;99.90;;;;;;4943884;28;20540;-81
2022/08/28 11:08:04;;;;;;;5.60;5.10;;;26.10;99.90;;;;;;4955668;29;20974;-83
2022/08/28 11:10:47;;;;;;;6.33;5.30;;;26.00;99.90;;;;;;4937106;29;20968;-83
2022/08/28 11:13:39;;;;;;;4.90;4.40;;;26.10;99.90;;;;;;4939846;29;20538;-82
2022/08/28 11:16:13;;;;;;;4.93;4.50;;;26.10;99.90;;;;;;4955871;28;20538;-82
2022/08/28 11:19:09;;;;;;;5.30;4.80;;;26.20;99.90;;;;;;4956257;28;20839;-82
2022/08/28 11:21:45;;;;;;;5.97;5.47;;;26.20;99.90;;;;;;4955861;28;20531;-82
2022/08/28 11:24:28;;;;;;;5.80;5.30;;;26.20;99.90;;;;;;4955394;28;20446;-82
2022/08/28 11:27:06;;;;;;;5.40;4.90;;;26.20;99.90;;;;;;4955414;28;20474;-82
2022/08/28 11:30:00;;;;;;;5.73;5.23;;;26.20;99.90;;;;;;4955685;28;20570;-82
2022/08/28 11:32:38;;;;;;;5.50;5.00;;;26.20;99.90;;;;;;4948904;29;20456;-81
2022/08/28 11:35:43;;;;;;;5.60;4.70;;;26.20;99.90;;;;;;4943282;29;21065;-82
2022/08/28 11:38:12;;;;;;;4.90;4.40;;;26.20;99.90;;;;;;4940310;29;21159;-82
2022/08/28 11:40:56;;;;;;;5.37;4.47;;;26.20;99.90;;;;;;4955427;29;20510;-82
2022/08/28 11:43:39;;;;;;;5.50;4.97;;;26.10;99.90;;;;;;4950574;28;20514;-83
2022/08/28 11:46:26;;;;;;;4.70;4.40;;;26.00;99.90;;;;;;4955158;28;20479;-82
2022/08/28 11:48:56;;;;;;;4.03;3.73;;;26.10;99.90;;;;;;4954891;28;20556;-82
2022/08/28 11:51:49;;;;;;;5.27;4.83;;;26.10;99.90;;;;;;4954955;28;20461;-82
2022/08/28 11:54:31;;;;;;;4.80;4.40;;;26.10;99.90;;;;;;4952146;28;20910;-82
2022/08/28 11:57:07;;;;;;;6.30;4.50;;;26.10;99.90;;;;;;4954591;28;20446;-82
2022/08/28 12:00:05;;;;;;;5.10;4.70;;;26.20;99.90;;;;;;4949950;28;20449;-83
2022/08/28 12:02:53;;;;;;;5.07;4.67;;;26.20;99.90;;;;;;4939749;28;20506;-81
2022/08/28 12:05:42;;;;;;;4.10;3.70;;;26.20;99.90;;;;;;4953165;28;20480;-82
2022/08/28 12:08:29;;;;;;;5.13;4.63;;;26.20;99.90;;;;;;4953439;29;21051;-82
2022/08/28 12:10:58;;;;;;;4.00;3.60;;;26.30;99.90;;;;;;4954184;28;20737;-81
2022/08/28 12:13:46;;;;;;;5.37;4.30;;;26.30;99.90;;;;;;4954111;28;20729;-82
2022/08/28 12:16:14;;;;;;;3.50;3.20;;;26.30;99.90;;;;;;4952287;28;21043;-82
2022/08/28 12:19:03;;;;;;;4.30;4.00;;;26.30;99.90;;;;;;4938909;29;20461;-83
2022/08/28 12:21:39;;;;;;;4.20;3.90;;;26.40;99.90;;;;;;4954812;29;20444;-82
2022/08/28 12:24:20;;;;;;;4.63;4.33;;;26.50;99.90;;;;;;4954313;28;20873;-82
2022/08/28 12:26:54;;;;;;;4.33;3.53;;;26.60;99.90;;;;;;4954983;29;20460;-82
2022/08/28 12:29:30;;;;;;;4.67;4.27;;;26.70;99.90;;;;;;4954937;29;20475;-82
2022/08/28 12:32:17;;;;;;;5.00;4.57;;;26.70;99.90;;;;;;4946978;28;20506;-82
2022/08/28 12:34:52;;;;;;;3.93;3.63;;;26.60;99.90;;;;;;4952408;28;20991;-82
2022/08/28 12:37:29;;;;;;;4.20;3.90;;;26.60;99.90;;;;;;4948034;29;20473;-82
2022/08/28 12:40:17;;;;;;;4.40;4.00;;;26.70;99.90;;;;;;4942183;28;20480;-82
2022/08/28 12:42:50;;;;;;;4.63;4.13;;;26.70;99.90;;;;;;4953059;28;20971;-82
2022/08/28 12:45:26;;;;;;;4.10;3.70;;;26.80;99.90;;;;;;4954506;28;20455;-82
2022/08/28 12:47:58;;;;;;;4.37;3.97;;;26.80;99.90;;;;;;4954200;29;20475;-82
2022/08/28 12:50:32;;;;;;;4.80;4.50;;;26.80;99.90;;;;;;4950435;29;20467;-81
2022/08/28 12:53:03;;;;;;;4.23;3.40;;;26.90;99.90;;;;;;4935121;29;20465;-81
2022/08/28 12:55:33;;;;;;;3.80;3.50;;;26.80;99.90;;;;;;4946302;28;20493;-82
2022/08/28 12:58:02;;;;;;;4.37;4.07;;;26.80;99.90;;;;;;4954378;29;20452;-81
2022/08/28 13:00:34;;;;;;;4.77;4.37;;;26.80;99.90;;;;;;4954298;29;20452;-81
2022/08/28 13:03:07;;;;;;;4.13;3.83;;;26.70;99.90;;;;;;4953984;28;21037;-81
2022/08/28 13:05:38;;;;;;;6.03;4.43;;;26.70;99.90;;;;;;4953489;28;21019;-81
2022/08/28 13:08:10;;;;;;;5.03;3.77;;;26.80;99.90;;;;;;4953207;29;20875;-82
2022/08/28 13:10:47;;;;;;;4.60;3.90;;;26.80;99.90;;;;;;4953415;29;20956;-81
2022/08/28 13:13:20;;;;;;;4.23;3.93;;;26.80;99.90;;;;;;4952748;29;20460;-82